TimeNST,TemperatureF,Dew PointF,Humidity,Sea Level PressureIn,VisibilityMPH,Wind Direction,Wind SpeedMPH,Gust SpeedMPH,PrecipitationIn,Events,Conditions,WindDirDegrees,DateUTC
12:30 AM,44.1,37.6,78,-9999,-9999.0,East,3.5,-,N/A,,Unknown,90,2013-03-03 04:00:00
1:30 AM,43.0,36.1,77,-9999,-9999.0,East,5.8,-,N/A,,Unknown,100,2013-03-03 05:00:00
2:30 AM,43,36,68,,,ENE,11.5,,,,,60,2013-03-03 06:00:00
2:30 AM,43.0,36.0,76,-9999,-9999.0,ENE,11.5,24.2,N/A,,Unknown,60,2013-03-03 06:00:00
3:30 AM,42.6,35.6,76,-9999,-9999.0,ENE,19.6,29.9,N/A,,Unknown,60,2013-03-03 07:00:00
4:30 AM,43.3,35.4,74,-9999,-9999.0,ENE,15.0,27.6,N/A,,Unknown,70,2013-03-03 08:00:00
5:30 AM,43.7,36.3,75,-9999,-9999.0,South,5.8,20.7,N/A,,Unknown,170,2013-03-03 09:00:00
6:30 AM,43.0,35.8,76,-9999,-9999.0,East,6.9,19.6,N/A,,Unknown,80,2013-03-03 10:00:00
7:30 AM,43.0,35.8,76,-9999,-9999.0,ENE,11.5,21.9,N/A,,Unknown,70,2013-03-03 11:00:00
8:30 AM,44,36,66,,,ENE,13.8,,,,,70,2013-03-03 12:00:00
8:30 AM,43.7,36.5,76,-9999,-9999.0,ENE,13.8,27.6,N/A,,Unknown,70,2013-03-03 12:00:00
9:30 AM,43.3,36.3,76,-9999,-9999.0,ENE,13.8,26.5,N/A,,Unknown,60,2013-03-03 13:00:00
10:30 AM,42.6,35.4,76,-9999,-9999.0,ENE,16.1,25.3,N/A,,Unknown,70,2013-03-03 14:00:00
11:30 AM,44.4,36.1,73,-9999,-9999.0,East,16.1,32.2,N/A,,Unknown,80,2013-03-03 15:00:00
12:30 PM,43.3,36.0,75,-9999,-9999.0,East,11.5,27.6,N/A,,Unknown,90,2013-03-03 16:00:00
1:30 PM,43.7,37.0,77,-9999,-9999.0,East,13.8,26.5,N/A,,Unknown,80,2013-03-03 17:00:00
2:30 PM,44,38,71,,,East,11.5,,,,,90,2013-03-03 18:00:00
2:30 PM,44.1,37.6,78,-9999,-9999.0,East,11.5,23.0,N/A,,Unknown,90,2013-03-03 18:00:00
3:30 PM,44.1,36.7,75,-9999,-9999.0,East,13.8,25.3,N/A,,Unknown,80,2013-03-03 19:00:00
4:30 PM,43.0,37.9,82,-9999,-9999.0,East,13.8,29.9,N/A,,Unknown,80,2013-03-03 20:00:00
5:30 PM,44.2,37.9,79,-9999,-9999.0,East,17.3,32.2,N/A,,Unknown,80,2013-03-03 21:00:00
6:30 PM,45.0,38.3,77,-9999,-9999.0,East,18.4,36.8,N/A,,Unknown,80,2013-03-03 22:00:00
7:30 PM,45.7,37.0,72,-9999,-9999.0,East,19.6,39.1,N/A,,Unknown,80,2013-03-03 23:00:00
8:30 PM,45,37,64,,,ENE,23.0,,,,,70,2013-03-04 00:00:00
9:30 PM,44.1,37.0,76,-9999,-9999.0,ENE,17.3,32.2,N/A,,Unknown,70,2013-03-04 01:00:00
10:30 PM,41.9,36.1,80,-9999,-9999.0,ENE,16.1,32.2,N/A,,Unknown,70,2013-03-04 02:00:00
11:30 PM,39.7,34.2,80,-9999,-9999.0,ENE,20.7,36.8,N/A,,Unknown,70,2013-03-04 03:00:00